METAR AND TAF INFORMATION
METAR FOR EHWO
ADDS - METARS form results

(0841 UTC 16 December 2019)
Data provider http://aviationweather.gov/metar/data/
 
METAR text: EHWO 160825Z AUTO 19007KT 150V260 9999 SCT015 BKN019 OVC023 09/06 Q1004 WHT 18007KT CAVOK TEMPO FEW012 SCT015 OVC100
Conditions at: EHWO (WOENSDRECHT RNLA, NL) observed 0825 UTC 16 December 2019
Temperature: 9.0°C (48°F)
Dewpoint: 6.0°C (43°F) [RH = 81%]
Pressure (altimeter): 29.65 inches Hg (1004.0 mb)
Winds: from the S (190 degrees) at 8 MPH (7 knots; 3.6 m/s)
Visibility: 6 or more miles (10+ km)
Ceiling: 1900 feet AGL
Clouds: scattered clouds at 1500 feet AGL
broken clouds at 1900 feet AGL
overcast cloud deck at 2300 feet AGL
Weather: no significant weather observed at this time

METAR text: EHWO 160817Z AUTO 19007KT 160V230 9999 FEW015 BKN020 BKN024 08/06 Q1004 WHT 18007KT CAVOK TEMPO FEW012 SCT015 OVC100
Conditions at: EHWO (WOENSDRECHT RNLA, NL) observed 0817 UTC 16 December 2019
Temperature: 8.0°C (46°F)
Dewpoint: 6.0°C (43°F) [RH = 87%]
Pressure (altimeter): 29.65 inches Hg (1004.0 mb)
Winds: from the S (190 degrees) at 8 MPH (7 knots; 3.6 m/s)
Visibility: 6 or more miles (10+ km)
Ceiling: 2000 feet AGL
Clouds: few clouds at 1500 feet AGL
broken clouds at 2000 feet AGL
broken clouds at 2400 feet AGL
Weather: no significant weather observed at this time

METAR text: EHWO 160816Z AUTO 19007KT 160V230 9999 FEW015 SCT020 BKN055 08/06 Q1004 WHT 18007KT CAVOK TEMPO FEW012 SCT015 OVC100
Conditions at: EHWO (WOENSDRECHT RNLA, NL) observed 0816 UTC 16 December 2019
Temperature: 8.0°C (46°F)
Dewpoint: 6.0°C (43°F) [RH = 87%]
Pressure (altimeter): 29.65 inches Hg (1004.0 mb)
Winds: from the S (190 degrees) at 8 MPH (7 knots; 3.6 m/s)
Visibility: 6 or more miles (10+ km)
Ceiling: 5500 feet AGL
Clouds: few clouds at 1500 feet AGL
scattered clouds at 2000 feet AGL
broken clouds at 5500 feet AGL
Weather: no significant weather observed at this time

METAR text: EHWO 160811Z AUTO 19007KT 160V230 9999 FEW016 SCT023 BKN055 08/06 Q1004 WHT 18007KT CAVOK TEMPO FEW012 SCT015 OVC100
Conditions at: EHWO (WOENSDRECHT RNLA, NL) observed 0811 UTC 16 December 2019
Temperature: 8.0°C (46°F)
Dewpoint: 6.0°C (43°F) [RH = 87%]
Pressure (altimeter): 29.65 inches Hg (1004.0 mb)
Winds: from the S (190 degrees) at 8 MPH (7 knots; 3.6 m/s)
Visibility: 6 or more miles (10+ km)
Ceiling: 5500 feet AGL
Clouds: few clouds at 1600 feet AGL
scattered clouds at 2300 feet AGL
broken clouds at 5500 feet AGL
Weather: no significant weather observed at this time

METAR text: EHWO 160755Z AUTO 19007KT 160V230 9999 FEW013 OVC066 08/06 Q1004 BLU 18007KT CAVOK TEMPO SCT012 SCT014 OVC120
Conditions at: EHWO (WOENSDRECHT RNLA, NL) observed 0755 UTC 16 December 2019
Temperature: 8.0°C (46°F)
Dewpoint: 6.0°C (43°F) [RH = 87%]
Pressure (altimeter): 29.65 inches Hg (1004.0 mb)
Winds: from the S (190 degrees) at 8 MPH (7 knots; 3.6 m/s)
Visibility: 6 or more miles (10+ km)
Ceiling: 6600 feet AGL
Clouds: few clouds at 1300 feet AGL
overcast cloud deck at 6600 feet AGL
Weather: no significant weather observed at this time

Forecast for: EHWO (WOENSDRECHT RNLA, NL)
Text: TAF EHWO 160523Z 1606/1618 18012KT CAVOK
Forecast period: 0600 to 1300 UTC 16 December 2019
Forecast type: FROM: standard forecast or significant change
Winds: from the S (180 degrees) at 14 MPH (12 knots; 6.2 m/s)
Visibility: 6 or more miles 10+ km)
Ceiling: unknown
Clouds: missing
Weather: NSW  (no significant weather)
Text: PROB40
Forecast period: 0600 to 0900 UTC 16 December 2019
Forecast type: TEMPORARY: The following changes expected for less than half the time period
Visibility: missing
Ceiling: 1000 feet AGL
Clouds: scattered clouds at 800 feet AGL
broken clouds at 1000 feet AGL
Weather: no significant weather forecast for this period
Text: TEMPO 1606/1609 SCT008 BKN010
Forecast period: 1300 to 1800 UTC 16 December 2019
Forecast type: BECOMING: Conditions expected to become as follows by 1500 UTC 16 December 2019
Winds: from the ESE (120 degrees) at 6 MPH (5 knots; 2.6 m/s)
Visibility: 6 or more miles 10+ km)
Ceiling: unknown
Clouds: missing
Weather: NSW  (no significant weather)
Text: BECMG 1613/1615 12005KT
Forecast period: 1500 to 1800 UTC 16 December 2019
Forecast type: TEMPORARY: The following changes expected for less than half the time period
Visibility: 2.80 miles (4.51 km)
Ceiling: 2200 feet AGL
Clouds: scattered clouds at 1800 feet AGL
broken clouds at 2200 feet AGL
overcast cloud deck at 4000 feet AGL
Weather: -RA  (light rain)
Text: TEMPO 1615/1618 4500 -RA SCT018 BKN022 OVC040
Forecast period: 1700 to 1800 UTC 16 December 2019
Forecast type: TEMPORARY: The following changes expected for less than half the time period
Visibility: 1.86 miles (2.99 km)
Ceiling: 1200 feet AGL
Clouds: scattered clouds at 600 feet AGL
broken clouds at 1200 feet AGL
Weather: RA DZ  (moderate rain, moderate drizzle)

 AIRPORT MAP

 RUNWAY INFORMATION
Runway 07 Runway length 7996 ft Runway width 148 ft
Runway elevation 39 ft Runway displaced threshold 0 ft Runway heading 69
Runway 25 Runway length 7996 ft Runway width 148 ft
Runway elevation 63 ft Runway displaced threshold 0 ft Runway heading 249

 AIRPORT FREQUENCIES
Type APP Name RAPCON WES Frequency 123.575 MHZ
Type ARR Name ARRIVAL Frequency 123.575 MHZ
Type TWR Name TWR Frequency 118.5 MHZ

 AIRPORT NEAR NAVIGATION AIDS
Type TACAN Name Woensdrecht Frequency 115000 KHZ